Time;durP1;ratioP1;P1;durP2;ratioP2;P2;SDS_P1;SDS_P2;PMS_P1;PMS_P2;Temp;Humidity;BMP_temperature;BMP_pressure;BME280_temperature;BME280_humidity;BME280_pressure;Samples;Min_cycle;Max_cycle;Signal;HPM_P1;HPM_P2
2023/05/28 00:00:13;;;;;;;15.05;6.50;;;;;;;;;;5032667;28;20130;-71
2023/05/28 00:02:39;;;;;;;15.57;6.88;;;;;;;;;;5048058;28;20049;-71
2023/05/28 00:05:06;;;;;;;18.90;7.88;;;;;;;;;;5053302;28;20064;-71
2023/05/28 00:07:32;;;;;;;16.85;7.00;;;;;;;;;;5052406;28;20037;-71
2023/05/28 00:09:58;;;;;;;16.15;6.75;;;;;;;;;;5051522;28;20080;-71
2023/05/28 00:12:25;;;;;;;15.40;6.55;;;;;;;;;;5055568;28;20112;-71
2023/05/28 00:14:51;;;;;;;16.02;7.18;;;;;;;;;;5047811;28;20040;-71
2023/05/28 00:17:17;;;;;;;12.30;6.15;;;;;;;;;;5047947;28;20029;-71
2023/05/28 00:19:44;;;;;;;11.77;6.97;;;;;;;;;;5047769;28;20045;-71
2023/05/28 00:22:11;;;;;;;19.38;7.00;;;;;;;;;;5051093;28;20199;-71
2023/05/28 00:24:37;;;;;;;9.85;5.28;;;;;;;;;;5049407;28;20097;-71
2023/05/28 00:27:03;;;;;;;18.58;6.68;;;;;;;;;;5051065;28;20033;-71
2023/05/28 00:29:30;;;;;;;8.43;5.72;;;;;;;;;;5048689;28;20049;-71
2023/05/28 00:31:56;;;;;;;9.10;6.07;;;;;;;;;;5054684;28;20412;-71
2023/05/28 00:34:23;;;;;;;12.18;6.63;;;;;;;;;;5046991;28;20449;-71
2023/05/28 00:36:49;;;;;;;12.45;6.18;;;;;;;;;;5053936;28;20036;-71
2023/05/28 00:39:16;;;;;;;10.00;6.50;;;;;;;;;;5033284;28;20417;-72
2023/05/28 00:41:42;;;;;;;14.77;7.30;;;;;;;;;;5053865;28;20037;-71
2023/05/28 00:44:12;;;;;;;16.58;7.10;;;;;;;;;;5051367;28;20506;-71
2023/05/28 00:46:41;;;;;;;16.20;7.05;;;;;;;;;;5048826;28;20184;-71
2023/05/28 00:49:07;;;;;;;16.75;6.97;;;;;;;;;;5047553;28;20499;-71
2023/05/28 00:51:35;;;;;;;11.40;5.95;;;;;;;;;;5049304;28;20111;-72
2023/05/28 00:54:01;;;;;;;17.40;6.88;;;;;;;;;;5049519;28;20040;-71
2023/05/28 00:56:27;;;;;;;13.85;6.50;;;;;;;;;;5042305;28;20124;-71
2023/05/28 00:58:55;;;;;;;10.75;6.15;;;;;;;;;;5049447;28;20040;-71
2023/05/28 01:01:22;;;;;;;16.45;6.63;;;;;;;;;;5049356;28;20067;-71
2023/05/28 01:03:49;;;;;;;19.02;7.85;;;;;;;;;;5048411;28;20041;-71
2023/05/28 01:06:15;;;;;;;12.80;6.60;;;;;;;;;;5047343;28;20131;-71
2023/05/28 01:08:41;;;;;;;15.80;7.25;;;;;;;;;;5050491;28;20040;-71
2023/05/28 01:11:14;;;;;;;15.35;7.88;;;;;;;;;;5039900;28;20036;-71
2023/05/28 01:13:40;;;;;;;12.75;6.72;;;;;;;;;;5040609;28;20059;-70
2023/05/28 01:16:06;;;;;;;20.10;6.93;;;;;;;;;;5053345;28;20064;-71
2023/05/28 01:18:33;;;;;;;15.90;7.55;;;;;;;;;;5047756;28;20041;-71
2023/05/28 01:21:02;;;;;;;13.13;7.15;;;;;;;;;;5050443;28;20326;-71
2023/05/28 01:23:29;;;;;;;19.17;6.93;;;;;;;;;;5050331;28;20491;-71
2023/05/28 01:25:56;;;;;;;11.10;6.55;;;;;;;;;;5049693;28;20112;-71
2023/05/28 01:28:23;;;;;;;14.27;6.90;;;;;;;;;;5050088;28;20095;-71
2023/05/28 01:30:49;;;;;;;15.27;6.50;;;;;;;;;;5031500;28;20148;-70
2023/05/28 01:33:16;;;;;;;15.15;7.28;;;;;;;;;;5063353;28;20352;-70
2023/05/28 01:35:42;;;;;;;14.73;6.88;;;;;;;;;;5052876;28;20044;-70
2023/05/28 01:38:10;;;;;;;25.30;6.88;;;;;;;;;;5049664;28;20037;-70
2023/05/28 01:40:37;;;;;;;12.80;6.35;;;;;;;;;;5058095;28;20503;-70
2023/05/28 01:43:04;;;;;;;14.93;6.72;;;;;;;;;;5055623;28;20051;-70
2023/05/28 01:45:31;;;;;;;11.52;6.63;;;;;;;;;;5065448;28;20036;-70
2023/05/28 01:47:57;;;;;;;13.15;7.30;;;;;;;;;;5044582;28;20071;-70
2023/05/28 01:50:23;;;;;;;14.40;7.18;;;;;;;;;;5038904;28;20483;-70
2023/05/28 01:52:49;;;;;;;17.35;7.85;;;;;;;;;;5049152;28;20143;-70
2023/05/28 01:55:16;;;;;;;13.77;6.45;;;;;;;;;;5049298;28;20467;-70
2023/05/28 01:57:42;;;;;;;15.57;6.63;;;;;;;;;;5048737;28;20060;-70
2023/05/28 02:00:10;;;;;;;13.88;6.97;;;;;;;;;;5054349;28;20045;-70
2023/05/28 02:02:36;;;;;;;15.25;6.70;;;;;;;;;;5049632;28;20493;-69
2023/05/28 02:05:03;;;;;;;11.23;6.25;;;;;;;;;;5050844;28;20048;-70
2023/05/28 02:07:30;;;;;;;12.00;7.55;;;;;;;;;;5054437;28;20122;-70
2023/05/28 02:09:57;;;;;;;13.73;6.32;;;;;;;;;;5053086;28;20498;-70
2023/05/28 02:12:23;;;;;;;11.63;6.35;;;;;;;;;;5052151;28;20049;-70
2023/05/28 02:14:49;;;;;;;20.10;7.22;;;;;;;;;;5041540;28;20049;-70
2023/05/28 02:17:17;;;;;;;26.25;8.18;;;;;;;;;;5050141;28;20055;-70
2023/05/28 02:19:43;;;;;;;16.42;8.13;;;;;;;;;;5049894;28;20045;-70
2023/05/28 02:22:12;;;;;;;13.73;7.20;;;;;;;;;;5053837;28;20049;-71
2023/05/28 02:24:39;;;;;;;12.63;7.95;;;;;;;;;;5037198;28;20134;-71
2023/05/28 02:27:06;;;;;;;13.73;7.07;;;;;;;;;;5049380;28;20040;-71
2023/05/28 02:29:32;;;;;;;16.35;7.65;;;;;;;;;;5058564;28;20501;-71
2023/05/28 02:31:59;;;;;;;17.90;7.13;;;;;;;;;;5053394;28;20148;-71
2023/05/28 02:34:25;;;;;;;16.40;7.47;;;;;;;;;;5049711;28;20360;-71
2023/05/28 02:36:52;;;;;;;15.52;7.20;;;;;;;;;;5048934;28;20033;-70
2023/05/28 02:39:19;;;;;;;14.55;7.38;;;;;;;;;;5052991;28;20045;-71
2023/05/28 02:41:45;;;;;;;15.60;8.90;;;;;;;;;;5046532;28;20044;-71
2023/05/28 02:44:11;;;;;;;19.70;7.90;;;;;;;;;;5032842;28;20052;-71
2023/05/28 02:46:37;;;;;;;13.00;8.07;;;;;;;;;;5043706;28;20064;-71
2023/05/28 02:49:03;;;;;;;15.88;7.38;;;;;;;;;;5062415;28;20125;-71
2023/05/28 02:51:30;;;;;;;19.50;9.00;;;;;;;;;;5051949;28;20057;-71
2023/05/28 02:53:56;;;;;;;14.27;8.05;;;;;;;;;;5045789;28;20459;-70
2023/05/28 02:56:22;;;;;;;13.50;7.95;;;;;;;;;;5045542;28;20492;-70
2023/05/28 02:58:48;;;;;;;15.10;8.30;;;;;;;;;;5045245;28;20151;-66
2023/05/28 03:01:14;;;;;;;19.45;7.40;;;;;;;;;;5047591;28;20073;-66
2023/05/28 03:03:40;;;;;;;14.32;7.57;;;;;;;;;;5052906;28;20048;-66
2023/05/28 03:06:07;;;;;;;15.75;7.95;;;;;;;;;;5050872;28;20044;-65
2023/05/28 03:08:33;;;;;;;14.60;7.93;;;;;;;;;;5051777;28;20079;-66
2023/05/28 03:10:59;;;;;;;14.90;8.80;;;;;;;;;;5045918;28;20444;-66
2023/05/28 03:13:26;;;;;;;14.40;7.95;;;;;;;;;;5048098;28;20033;-66
2023/05/28 03:15:52;;;;;;;16.30;9.02;;;;;;;;;;5051229;28;20039;-66
2023/05/28 03:18:18;;;;;;;14.40;8.68;;;;;;;;;;5056570;28;20073;-66
2023/05/28 03:20:44;;;;;;;14.00;7.35;;;;;;;;;;5031725;28;20101;-66
2023/05/28 03:23:11;;;;;;;11.45;7.53;;;;;;;;;;5031722;28;20037;-66
2023/05/28 03:25:37;;;;;;;19.45;7.72;;;;;;;;;;5047640;28;20156;-66
2023/05/28 03:28:03;;;;;;;19.77;9.00;;;;;;;;;;5044223;28;20036;-66
2023/05/28 03:30:29;;;;;;;16.20;7.75;;;;;;;;;;5042180;28;20041;-66
2023/05/28 03:32:55;;;;;;;16.60;7.70;;;;;;;;;;5052113;28;20025;-66
2023/05/28 03:35:22;;;;;;;17.50;7.85;;;;;;;;;;5048770;28;20043;-66
2023/05/28 03:37:48;;;;;;;20.25;7.97;;;;;;;;;;5052141;28;20136;-66
2023/05/28 03:40:14;;;;;;;14.70;8.43;;;;;;;;;;5045620;28;20037;-66
2023/05/28 03:42:40;;;;;;;18.67;7.70;;;;;;;;;;5050554;28;20471;-66
2023/05/28 03:45:07;;;;;;;17.60;8.32;;;;;;;;;;5045610;28;20432;-66
2023/05/28 03:47:34;;;;;;;19.08;9.20;;;;;;;;;;5051033;28;20437;-66
2023/05/28 03:50:00;;;;;;;13.48;7.07;;;;;;;;;;5045894;28;20359;-66
2023/05/28 03:52:27;;;;;;;13.82;6.47;;;;;;;;;;5049814;28;20332;-66
2023/05/28 03:54:54;;;;;;;18.98;7.10;;;;;;;;;;5048167;28;20060;-66
2023/05/28 03:57:20;;;;;;;13.60;7.25;;;;;;;;;;5046610;28;20047;-66
2023/05/28 03:59:46;;;;;;;14.40;7.72;;;;;;;;;;5038031;28;20479;-66
2023/05/28 04:02:12;;;;;;;14.48;7.00;;;;;;;;;;5049120;28;20025;-66
2023/05/28 04:04:38;;;;;;;19.70;7.32;;;;;;;;;;5050365;28;20332;-66
2023/05/28 04:07:04;;;;;;;11.55;7.90;;;;;;;;;;5051616;28;20037;-67
2023/05/28 04:09:31;;;;;;;13.90;6.50;;;;;;;;;;5046039;28;20106;-66
2023/05/28 04:11:57;;;;;;;12.65;7.13;;;;;;;;;;5046579;28;20368;-67
2023/05/28 04:14:23;;;;;;;10.45;6.60;;;;;;;;;;5042250;28;20033;-66
2023/05/28 04:16:49;;;;;;;13.07;5.95;;;;;;;;;;5048101;28;20050;-66
2023/05/28 04:19:15;;;;;;;15.40;6.53;;;;;;;;;;5040708;28;20449;-66
2023/05/28 04:21:41;;;;;;;13.65;6.55;;;;;;;;;;5050042;28;20040;-67
2023/05/28 04:24:07;;;;;;;13.63;7.63;;;;;;;;;;5041719;28;20045;-67
2023/05/28 04:26:34;;;;;;;16.13;7.05;;;;;;;;;;5041450;28;20045;-66
2023/05/28 04:29:01;;;;;;;13.07;6.43;;;;;;;;;;5046819;28;20130;-67
2023/05/28 04:31:28;;;;;;;14.20;7.65;;;;;;;;;;5051961;28;20144;-66
2023/05/28 04:33:54;;;;;;;13.73;7.88;;;;;;;;;;5048514;28;20483;-66
2023/05/28 04:36:20;;;;;;;14.23;6.75;;;;;;;;;;5053211;28;20449;-66
2023/05/28 04:38:46;;;;;;;11.50;6.43;;;;;;;;;;5052847;28;20419;-66
2023/05/28 04:41:14;;;;;;;15.20;6.85;;;;;;;;;;5054266;28;20387;-67
2023/05/28 04:43:43;;;;;;;14.20;6.57;;;;;;;;;;5051883;28;20463;-66
2023/05/28 04:46:09;;;;;;;12.93;7.30;;;;;;;;;;5049913;28;20139;-66
2023/05/28 04:48:36;;;;;;;14.07;7.00;;;;;;;;;;5037990;28;20135;-66
2023/05/28 04:51:06;;;;;;;10.23;6.55;;;;;;;;;;5041107;28;20041;-66
2023/05/28 04:53:33;;;;;;;18.15;7.07;;;;;;;;;;5040951;28;20073;-66
2023/05/28 04:56:00;;;;;;;11.75;6.82;;;;;;;;;;5051674;28;20048;-66
2023/05/28 04:58:26;;;;;;;11.88;6.97;;;;;;;;;;5044333;28;20036;-66
2023/05/28 05:00:52;;;;;;;14.18;7.30;;;;;;;;;;5051248;28;20407;-66
2023/05/28 05:03:18;;;;;;;14.95;7.18;;;;;;;;;;5046454;28;20045;-67
2023/05/28 05:05:44;;;;;;;15.43;5.72;;;;;;;;;;5047438;28;20270;-66
2023/05/28 05:08:13;;;;;;;12.32;6.63;;;;;;;;;;5016388;28;20133;-67
2023/05/28 05:10:40;;;;;;;10.13;6.35;;;;;;;;;;5047510;28;20127;-67
2023/05/28 05:13:06;;;;;;;13.93;6.45;;;;;;;;;;5042602;28;20049;-67
2023/05/28 05:15:33;;;;;;;12.52;6.75;;;;;;;;;;5036742;28;20053;-66
2023/05/28 05:17:59;;;;;;;14.32;7.93;;;;;;;;;;5047763;28;20063;-66
2023/05/28 05:20:27;;;;;;;12.25;6.80;;;;;;;;;;5043324;28;20047;-66
2023/05/28 05:22:53;;;;;;;10.90;6.55;;;;;;;;;;5051117;28;20053;-66
2023/05/28 05:25:19;;;;;;;14.43;6.25;;;;;;;;;;5027089;28;20076;-67
2023/05/28 05:27:45;;;;;;;12.35;6.45;;;;;;;;;;5041385;28;20072;-66
2023/05/28 05:30:12;;;;;;;14.68;6.68;;;;;;;;;;5017907;28;20053;-67
2023/05/28 05:32:38;;;;;;;22.70;7.38;;;;;;;;;;5042470;28;20372;-66
2023/05/28 05:35:04;;;;;;;16.58;7.80;;;;;;;;;;5045739;28;20495;-66
2023/05/28 05:37:30;;;;;;;13.02;6.53;;;;;;;;;;5049236;28;20036;-66
2023/05/28 05:39:56;;;;;;;15.82;7.60;;;;;;;;;;5043151;28;20411;-66
2023/05/28 05:42:22;;;;;;;18.20;8.65;;;;;;;;;;5043740;28;20115;-67
2023/05/28 05:44:49;;;;;;;13.93;7.10;;;;;;;;;;5040929;28;20113;-67
2023/05/28 05:47:15;;;;;;;19.13;7.93;;;;;;;;;;5043393;28;20044;-68
2023/05/28 05:49:41;;;;;;;18.52;9.23;;;;;;;;;;5047564;28;20600;-67
2023/05/28 05:52:07;;;;;;;16.55;9.13;;;;;;;;;;5043388;28;20049;-67
2023/05/28 05:54:34;;;;;;;16.35;8.65;;;;;;;;;;5039809;28;20049;-67
2023/05/28 05:57:02;;;;;;;18.85;10.32;;;;;;;;;;5048638;28;20048;-67
2023/05/28 05:59:28;;;;;;;15.43;9.18;;;;;;;;;;5042027;28;20140;-67
2023/05/28 06:01:55;;;;;;;19.95;8.35;;;;;;;;;;5042905;28;20049;-67
2023/05/28 06:04:21;;;;;;;16.45;8.80;;;;;;;;;;5042800;28;20571;-67
2023/05/28 06:06:47;;;;;;;17.35;8.55;;;;;;;;;;5044607;28;20452;-67
2023/05/28 06:09:13;;;;;;;21.92;8.95;;;;;;;;;;5045023;28;20395;-67
2023/05/28 06:11:40;;;;;;;13.93;8.25;;;;;;;;;;5042319;28;20148;-67
2023/05/28 06:14:06;;;;;;;20.60;7.57;;;;;;;;;;5047434;28;20307;-67
2023/05/28 06:16:32;;;;;;;12.50;7.82;;;;;;;;;;5042225;28;20094;-67
2023/05/28 06:18:59;;;;;;;12.35;7.85;;;;;;;;;;5031722;28;20076;-67
2023/05/28 06:21:26;;;;;;;15.43;7.05;;;;;;;;;;5047944;28;20041;-67
2023/05/28 06:23:53;;;;;;;17.27;7.95;;;;;;;;;;5047196;28;20506;-67
2023/05/28 06:26:19;;;;;;;14.20;6.93;;;;;;;;;;5022972;28;20482;-67
2023/05/28 06:28:45;;;;;;;12.18;5.70;;;;;;;;;;5041576;28;20135;-67
2023/05/28 06:31:11;;;;;;;14.10;5.90;;;;;;;;;;5037263;28;20128;-67
2023/05/28 06:33:38;;;;;;;13.43;6.32;;;;;;;;;;5040107;28;20981;-66
2023/05/28 06:36:04;;;;;;;12.32;5.60;;;;;;;;;;5039054;28;20049;-67
2023/05/28 06:38:30;;;;;;;12.30;5.47;;;;;;;;;;5055902;28;20044;-67
2023/05/28 06:40:56;;;;;;;9.48;5.53;;;;;;;;;;5048242;28;20037;-67
2023/05/28 06:43:23;;;;;;;12.85;5.63;;;;;;;;;;5053051;28;20041;-67
2023/05/28 06:45:49;;;;;;;10.50;5.78;;;;;;;;;;5048168;28;20573;-67
2023/05/28 07:06:03;;;;;;;7.05;4.20;;;;;;;;;;5125319;27;20410;-65
2023/05/28 07:08:30;;;;;;;13.02;5.22;;;;;;;;;;5101871;28;20593;-67
2023/05/28 07:10:56;;;;;;;11.05;4.57;;;;;;;;;;5139346;27;20489;-67
2023/05/28 07:13:22;;;;;;;11.27;4.72;;;;;;;;;;5095732;28;20047;-67
2023/05/28 07:15:48;;;;;;;7.18;4.13;;;;;;;;;;5101666;28;20509;-67
2023/05/28 07:18:14;;;;;;;14.05;4.82;;;;;;;;;;5121840;27;20048;-67
2023/05/28 07:20:40;;;;;;;7.45;4.40;;;;;;;;;;5111179;28;20162;-68
2023/05/28 07:23:07;;;;;;;7.25;4.40;;;;;;;;;;5097276;28;20467;-67
2023/05/28 07:25:33;;;;;;;7.70;4.45;;;;;;;;;;5082673;28;20040;-67
2023/05/28 07:27:59;;;;;;;10.35;4.93;;;;;;;;;;5065337;28;20044;-67
2023/05/28 07:30:25;;;;;;;6.75;4.07;;;;;;;;;;5102366;28;20047;-67
2023/05/28 07:32:52;;;;;;;7.15;3.80;;;;;;;;;;5106677;28;20089;-67
2023/05/28 07:35:18;;;;;;;5.80;3.90;;;;;;;;;;5100456;28;20443;-68
2023/05/28 07:37:44;;;;;;;7.05;3.35;;;;;;;;;;5052057;28;20046;-67
2023/05/28 07:40:10;;;;;;;10.25;3.55;;;;;;;;;;5100048;28;20043;-67
2023/05/28 07:42:37;;;;;;;7.30;4.28;;;;;;;;;;5104976;28;20101;-67
2023/05/28 07:45:03;;;;;;;11.45;3.78;;;;;;;;;;5119887;27;20043;-67
2023/05/28 07:47:30;;;;;;;6.88;3.55;;;;;;;;;;5103246;28;20035;-67
2023/05/28 07:49:56;;;;;;;9.68;4.15;;;;;;;;;;5121528;27;20167;-67
2023/05/28 07:52:22;;;;;;;6.47;3.97;;;;;;;;;;5110027;28;20043;-66
2023/05/28 07:54:48;;;;;;;8.85;3.53;;;;;;;;;;5103251;28;20389;-67
2023/05/28 07:57:15;;;;;;;7.00;3.70;;;;;;;;;;5102544;28;20075;-67
2023/05/28 07:59:42;;;;;;;5.80;3.30;;;;;;;;;;5104995;28;20043;-66
2023/05/28 08:02:08;;;;;;;7.30;3.72;;;;;;;;;;5097570;28;20040;-67
2023/05/28 08:04:34;;;;;;;8.70;4.25;;;;;;;;;;5057199;28;20053;-67
2023/05/28 08:07:00;;;;;;;8.27;4.20;;;;;;;;;;5001762;28;20050;-67
2023/05/28 08:09:26;;;;;;;5.13;3.85;;;;;;;;;;4995907;28;20132;-67
2023/05/28 08:11:53;;;;;;;11.25;4.82;;;;;;;;;;4997944;28;20527;-67
2023/05/28 08:14:19;;;;;;;7.13;4.00;;;;;;;;;;5009893;28;20034;-66
2023/05/28 08:16:45;;;;;;;11.00;5.68;;;;;;;;;;4981775;28;20084;-66
2023/05/28 08:19:12;;;;;;;7.95;4.82;;;;;;;;;;5043009;27;20518;-66
2023/05/28 08:21:38;;;;;;;7.53;4.32;;;;;;;;;;5040527;28;20077;-67
2023/05/28 08:24:04;;;;;;;10.43;5.43;;;;;;;;;;4976150;28;20052;-67
2023/05/28 08:26:30;;;;;;;9.68;5.78;;;;;;;;;;4987453;28;20120;-67
2023/05/28 08:28:56;;;;;;;10.90;5.13;;;;;;;;;;5003373;28;20042;-67
2023/05/28 08:31:23;;;;;;;8.38;5.00;;;;;;;;;;4990458;28;20046;-66
2023/05/28 08:33:49;;;;;;;10.30;4.60;;;;;;;;;;5006891;28;20050;-66
2023/05/28 08:36:15;;;;;;;6.65;4.07;;;;;;;;;;5010678;28;20060;-66
2023/05/28 08:38:41;;;;;;;6.13;4.38;;;;;;;;;;5003336;28;20053;-66
2023/05/28 08:41:07;;;;;;;6.80;4.88;;;14.20;99.90;;;;;;4990226;28;20081;-65
2023/05/28 08:43:33;;;;;;;8.02;4.38;;;16.40;99.90;;;;;;5036441;27;20038;-67
2023/05/28 08:45:59;;;;;;;9.95;5.10;;;16.40;99.90;;;;;;5011228;28;20526;-66
2023/05/28 08:48:26;;;;;;;9.60;5.85;;;16.50;99.90;;;;;;5008726;28;20690;-66
2023/05/28 08:50:52;;;;;;;6.32;4.63;;;16.50;99.90;;;;;;5006450;28;20037;-66
2023/05/28 08:53:22;;;;;;;11.02;5.85;;;;;;;;;;5008366;28;20082;-66
2023/05/28 08:55:49;;;;;;;9.73;4.78;;;;;;;;;;4998809;28;20045;-66
2023/05/28 08:58:17;;;;;;;7.50;4.88;;;;;;;;;;5003293;28;20129;-66
2023/05/28 09:00:43;;;;;;;12.82;6.13;;;;;;;;;;5006191;28;20045;-66
2023/05/28 09:03:09;;;;;;;9.15;5.03;;;;;;;;;;5006918;28;20050;-67
2023/05/28 09:05:39;;;;;;;9.68;5.15;;;16.60;99.90;;;;;;5017171;28;20064;-67
2023/05/28 09:08:10;;;;;;;9.70;5.43;;;;;;;;;;5010019;28;20216;-67
2023/05/28 09:10:37;;;;;;;9.98;4.93;;;16.90;99.90;;;;;;4987699;28;20053;-67
2023/05/28 09:13:04;;;;;;;9.15;5.97;;;17.00;99.90;;;;;;5010717;28;20038;-67
2023/05/28 09:15:31;;;;;;;9.77;5.07;;;;;;;;;;5009055;28;20501;-66
2023/05/28 09:17:59;;;;;;;7.63;5.45;;;17.10;99.90;;;;;;5010852;28;20495;-67
2023/05/28 09:20:25;;;;;;;7.97;5.13;;;17.20;99.90;;;;;;5010945;28;20053;-66
2023/05/28 09:23:18;;;;;;;10.90;6.13;;;17.20;99.80;;;;;;5008345;28;20052;-66
2023/05/28 09:25:46;;;;;;;9.95;5.50;;;17.30;99.60;;;;;;5009896;28;20129;-66
2023/05/28 09:28:13;;;;;;;9.90;5.72;;;;;;;;;;5009352;28;20042;-67
2023/05/28 09:30:41;;;;;;;7.80;5.90;;;;;;;;;;4997958;28;20049;-66
2023/05/28 09:33:07;;;;;;;6.75;5.50;;;;;;;;;;4991515;28;20042;-67
2023/05/28 09:35:34;;;;;;;9.85;5.85;;;;;;;;;;5012131;28;20117;-67
2023/05/28 09:38:00;;;;;;;8.75;5.55;;;;;;;;;;5010053;28;20197;-67
2023/05/28 09:40:27;;;;;;;11.25;6.00;;;;;;;;;;4991454;28;20073;-67
2023/05/28 09:42:53;;;;;;;11.07;5.82;;;;;;;;;;5003098;28;20457;-66
2023/05/28 09:45:26;;;;;;;9.63;4.93;;;;;;;;;;5037341;27;20044;-67
2023/05/28 09:47:52;;;;;;;11.38;5.18;;;;;;;;;;5005125;28;20133;-67
2023/05/28 09:50:19;;;;;;;10.73;5.30;;;;;;;;;;5040585;27;20045;-67
2023/05/28 09:52:47;;;;;;;9.52;5.28;;;;;;;;;;4969479;28;20156;-67
2023/05/28 09:55:20;;;;;;;8.35;4.93;;;;;;;;;;5004848;28;20042;-67
2023/05/28 09:58:06;;;;;;;9.60;4.80;;;17.30;99.40;;;;;;5012141;28;20056;-66
2023/05/28 10:00:44;;;;;;;7.53;4.65;;;18.00;97.00;;;;;;5004647;28;20500;-66
2023/05/28 10:03:36;;;;;;;10.63;4.28;;;18.10;96.60;;;;;;5004629;28;20510;-67
2023/05/28 10:06:05;;;;;;;9.05;3.80;;;;;;;;;;5007023;28;20142;-66
2023/05/28 10:08:37;;;;;;;7.13;4.50;;;;;;;;;;4998140;28;20065;-67
2023/05/28 10:11:03;;;;;;;6.28;4.13;;;;;;;;;;5013375;28;20090;-67
2023/05/28 10:13:31;;;;;;;5.90;3.65;;;;;;;;;;5011161;28;20077;-67
2023/05/28 10:15:57;;;;;;;6.45;3.65;;;18.10;96.00;;;;;;5040724;27;20065;-68
2023/05/28 10:18:25;;;;;;;7.30;3.63;;;18.30;95.20;;;;;;5014121;28;20473;-67
2023/05/28 10:20:51;;;;;;;7.32;4.05;;;18.30;94.90;;;;;;5005320;28;20456;-68
2023/05/28 10:23:19;;;;;;;5.93;4.13;;;18.30;94.80;;;;;;5005434;28;20050;-67
2023/05/28 10:25:46;;;;;;;6.55;3.45;;;18.40;95.00;;;;;;5040784;27;20058;-67
2023/05/28 10:28:15;;;;;;;5.70;3.97;;;18.40;94.90;;;;;;5003406;28;20057;-67
2023/05/28 10:30:41;;;;;;;8.95;3.60;;;18.50;95.00;;;;;;5037452;27;20452;-66
2023/05/28 10:33:17;;;;;;;5.78;3.50;;;;;;;;;;4970655;28;20137;-66
2023/05/28 10:35:53;;;;;;;5.97;3.47;;;;;;;;;;4997881;28;20124;-66
2023/05/28 10:38:20;;;;;;;7.88;3.75;;;;;;;;;;5007355;28;20056;-66
2023/05/28 10:40:46;;;;;;;4.68;2.88;;;;;;;;;;5018664;28;20479;-66
2023/05/28 10:43:31;;;;;;;5.97;3.15;;;;;;;;;;5001704;28;20154;-66
2023/05/28 10:45:57;;;;;;;12.35;3.55;;;;;;;;;;4994789;28;20057;-66
2023/05/28 10:48:23;;;;;;;6.82;3.13;;;;;;;;;;4989169;28;20787;-66
2023/05/28 10:51:00;;;;;;;7.22;3.45;;;;;;;;;;5002761;28;20045;-66
2023/05/28 10:53:27;;;;;;;7.72;3.65;;;;;;;;;;5005968;28;20042;-67
2023/05/28 10:55:56;;;;;;;5.47;3.38;;;;;;;;;;5009491;28;20059;-66
2023/05/28 10:58:28;;;;;;;4.50;2.50;;;;;;;;;;4989682;28;20037;-66
2023/05/28 11:01:02;;;;;;;8.73;3.30;;;;;;;;;;4982430;28;20077;-65
2023/05/28 11:03:42;;;;;;;6.95;2.95;;;;;;;;;;5003568;28;20460;-66
2023/05/28 11:06:10;;;;;;;8.13;3.95;;;;;;;;;;4985225;28;20512;-66
2023/05/28 11:08:46;;;;;;;5.72;3.55;;;;;;;;;;4989645;28;20089;-66
2023/05/28 11:11:13;;;;;;;7.28;3.03;;;;;;;;;;4985062;28;20559;-66
2023/05/28 11:13:39;;;;;;;6.53;3.40;;;;;;;;;;5007585;28;20045;-66
2023/05/28 11:16:06;;;;;;;12.18;4.03;;;;;;;;;;4991978;28;20286;-66
2023/05/28 11:18:33;;;;;;;10.50;3.67;;;;;;;;;;4988022;28;20580;-67
2023/05/28 11:21:02;;;;;;;8.93;4.05;;;;;;;;;;5080532;27;20054;-66
2023/05/28 11:23:29;;;;;;;6.75;3.72;;;;;;;;;;5041776;27;20045;-66
2023/05/28 11:25:55;;;;;;;10.68;4.18;;;;;;;;;;4990436;28;20054;-67
2023/05/28 11:28:21;;;;;;;7.18;4.00;;;;;;;;;;5003165;28;20505;-67
2023/05/28 11:30:51;;;;;;;8.05;3.47;;;;;;;;;;5007617;28;20052;-67
2023/05/28 11:33:17;;;;;;;8.00;4.25;;;;;;;;;;5011279;28;20045;-66
2023/05/28 11:35:43;;;;;;;10.02;4.88;;;;;;;;;;4988082;28;20042;-67
2023/05/28 11:38:09;;;;;;;8.02;4.03;;;;;;;;;;5005517;28;20488;-67
2023/05/28 11:40:36;;;;;;;5.95;3.72;;;;;;;;;;5010362;28;20048;-67
2023/05/28 11:43:04;;;;;;;6.85;3.78;;;18.60;95.00;;;;;;5015390;28;20045;-67
2023/05/28 11:45:37;;;;;;;10.70;4.43;;;19.50;96.10;;;;;;5008017;28;20183;-67
2023/05/28 11:48:03;;;;;;;8.38;4.22;;;19.50;95.80;;;;;;5024177;28;20514;-67
2023/05/28 11:50:29;;;;;;;10.13;3.83;;;19.40;95.80;;;;;;4993016;28;20045;-67
2023/05/28 11:52:55;;;;;;;11.13;3.90;;;;;;;;;;5060728;27;20090;-67
2023/05/28 11:55:22;;;;;;;8.23;4.13;;;;;;;;;;4993246;28;20038;-67
2023/05/28 11:57:54;;;;;;;6.70;3.55;;;;;;;;;;5087424;27;20396;-67
2023/05/28 12:00:21;;;;;;;7.10;3.75;;;;;;;;;;5013890;28;20045;-66
2023/05/28 12:02:47;;;;;;;8.00;4.22;;;;;;;;;;4974166;28;20069;-67
2023/05/28 12:05:14;;;;;;;6.50;3.33;;;;;;;;;;4992192;28;20046;-66
2023/05/28 12:08:07;;;;;;;6.90;3.35;;;;;;;;;;4989059;28;20550;-66
2023/05/28 12:10:33;;;;;;;8.68;4.03;;;;;;;;;;5045704;27;20049;-67
2023/05/28 12:13:01;;;;;;;8.27;3.33;;;;;;;;;;4991825;28;20042;-67
2023/05/28 12:15:30;;;;;;;9.60;3.92;;;;;;;;;;5007505;28;20042;-67
2023/05/28 12:17:57;;;;;;;6.95;3.83;;;;;;;;;;4985112;28;20049;-69
2023/05/28 12:20:23;;;;;;;9.55;3.70;;;;;;;;;;4987328;28;20045;-69
2023/05/28 12:23:12;;;;;;;8.32;3.17;;;19.40;96.10;;;;;;5002993;28;20063;-69
2023/05/28 12:25:44;;;;;;;8.80;4.47;;;19.40;94.90;;;;;;5004465;28;20490;-68
2023/05/28 12:28:10;;;;;;;10.50;4.38;;;19.40;95.30;;;;;;5006519;28;20050;-68
2023/05/28 12:30:38;;;;;;;8.20;4.20;;;19.50;95.60;;;;;;5029162;28;20045;-69
2023/05/28 12:33:04;;;;;;;8.10;3.97;;;19.50;95.80;;;;;;4991612;28;20042;-68
2023/05/28 12:35:30;;;;;;;9.88;4.28;;;19.50;95.90;;;;;;5002609;28;20037;-68
2023/05/28 12:37:56;;;;;;;9.13;4.50;;;19.50;95.80;;;;;;5005300;28;20098;-69
2023/05/28 12:40:22;;;;;;;7.50;3.75;;;19.50;95.80;;;;;;4990929;28;20042;-69
2023/05/28 12:42:51;;;;;;;9.30;4.13;;;;;;;;;;5022956;28;20077;-69
2023/05/28 12:45:17;;;;;;;12.73;3.75;;;;;;;;;;5037697;27;20278;-70
2023/05/28 12:47:43;;;;;;;8.50;4.18;;;;;;;;;;5009450;28;20038;-70
2023/05/28 12:50:09;;;;;;;8.88;4.05;;;;;;;;;;4990674;28;20034;-68
2023/05/28 12:52:36;;;;;;;12.05;4.13;;;;;;;;;;5007521;28;20046;-75
2023/05/28 12:55:02;;;;;;;7.28;3.53;;;;;;;;;;5039028;27;20037;-76
2023/05/28 12:57:28;;;;;;;7.85;3.47;;;;;;;;;;5042485;27;20765;-76
2023/05/28 12:59:56;;;;;;;11.02;4.18;;;;;;;;;;5023716;28;20547;-76
2023/05/28 13:02:23;;;;;;;7.15;3.75;;;;;;;;;;4982070;28;20065;-76
2023/05/28 13:04:49;;;;;;;9.15;3.58;;;;;;;;;;4988669;28;20054;-75
2023/05/28 13:07:15;;;;;;;16.05;5.63;;;;;;;;;;4994223;28;20041;-73
2023/05/28 13:09:41;;;;;;;9.15;3.90;;;;;;;;;;5014289;28;20057;-73
2023/05/28 13:12:07;;;;;;;7.82;3.83;;;;;;;;;;5010135;28;20125;-74
2023/05/28 13:14:33;;;;;;;9.50;3.50;;;;;;;;;;4992552;28;20038;-75
2023/05/28 13:17:00;;;;;;;7.18;3.90;;;;;;;;;;5008897;28;20134;-74
2023/05/28 13:19:27;;;;;;;9.02;4.45;;;;;;;;;;5018546;28;20049;-75
2023/05/28 13:21:53;;;;;;;8.32;3.85;;;;;;;;;;5028549;28;20057;-74
2023/05/28 13:24:19;;;;;;;11.25;4.47;;;;;;;;;;5010015;28;20052;-74
2023/05/28 13:26:45;;;;;;;10.18;4.05;;;;;;;;;;5041724;28;20056;-75
2023/05/28 13:29:11;;;;;;;8.00;4.40;;;;;;;;;;5035318;28;20466;-75
2023/05/28 13:31:37;;;;;;;13.73;4.15;;;;;;;;;;5112165;28;20473;-75
2023/05/28 13:34:04;;;;;;;10.30;4.47;;;;;;;;;;5076644;28;20042;-75
2023/05/28 13:36:30;;;;;;;11.70;4.90;;;;;;;;;;5022301;28;20045;-74
2023/05/28 13:38:56;;;;;;;11.48;3.85;;;;;;;;;;5111440;28;20489;-74
2023/05/28 13:41:26;;;;;;;6.88;3.92;;;;;;;;;;5024558;28;20456;-74
2023/05/28 13:43:54;;;;;;;10.95;4.78;;;;;;;;;;5020125;28;20153;-75
2023/05/28 13:46:27;;;;;;;8.93;4.03;;;;;;;;;;5022671;28;20133;-74
2023/05/28 13:48:54;;;;;;;14.27;5.45;;;;;;;;;;5050616;28;20152;-75
2023/05/28 13:51:20;;;;;;;10.60;4.63;;;;;;;;;;5008958;28;20037;-75
2023/05/28 13:53:47;;;;;;;7.75;3.70;;;;;;;;;;5023240;28;20054;-75
2023/05/28 13:56:16;;;;;;;12.93;5.30;;;;;;;;;;5009597;28;20228;-75
2023/05/28 13:58:42;;;;;;;8.90;4.95;;;;;;;;;;5007722;28;20057;-75
2023/05/28 14:01:08;;;;;;;7.05;4.65;;;;;;;;;;5000794;28;20373;-74
2023/05/28 14:03:35;;;;;;;12.05;4.65;;;;;;;;;;5012888;28;20050;-74
2023/05/28 14:06:01;;;;;;;11.50;5.45;;;;;;;;;;5041699;28;20054;-74
2023/05/28 14:08:27;;;;;;;7.85;4.35;;;;;;;;;;4997384;28;20049;-74
2023/05/28 14:10:53;;;;;;;15.68;5.95;;;;;;;;;;5011814;28;20042;-74
2023/05/28 14:13:20;;;;;;;13.65;5.22;;;;;;;;;;4991041;28;20095;-74
2023/05/28 14:15:46;;;;;;;8.27;4.88;;;;;;;;;;5007593;28;20046;-74
2023/05/28 14:18:12;;;;;;;12.32;5.70;;;;;;;;;;5009387;28;20445;-74
2023/05/28 14:20:38;;;;;;;9.63;4.72;;;;;;;;;;5041208;27;20095;-74
2023/05/28 14:23:05;;;;;;;10.90;4.90;;;;;;;;;;5008937;28;20125;-74
2023/05/28 14:25:31;;;;;;;12.05;5.72;;;;;;;;;;5009324;28;20038;-74
2023/05/28 14:27:57;;;;;;;10.20;4.88;;;;;;;;;;5040876;28;20441;-74
2023/05/28 14:30:24;;;;;;;7.05;4.85;;;;;;;;;;5017472;28;20034;-76
2023/05/28 14:32:50;;;;;;;10.30;5.18;;;;;;;;;;4992086;28;20041;-76
2023/05/28 14:35:18;;;;;;;14.45;5.90;;;;;;;;;;4998205;28;20061;-76
2023/05/28 14:37:45;;;;;;;10.30;6.38;;;;;;;;;;5061595;28;20161;-75